Time;durP1;ratioP1;P1;durP2;ratioP2;P2;SDS_P1;SDS_P2;PMS_P1;PMS_P2;Temp;Humidity;BMP_temperature;BMP_pressure;BME280_temperature;BME280_humidity;BME280_pressure;Samples;Min_cycle;Max_cycle;Signal;HPM_P1;HPM_P2
2022/10/05 00:00:56;;;;;;;15.35;13.73;;;8.80;99.90;;;;;;4939851;29;20260;-84
2022/10/05 00:03:26;;;;;;;19.48;13.05;;;8.80;99.90;;;;;;4962765;29;20272;-84
2022/10/05 00:05:53;;;;;;;16.25;13.27;;;8.70;99.90;;;;;;4940470;29;20258;-85
2022/10/05 00:08:23;;;;;;;17.17;13.15;;;8.80;99.90;;;;;;4958646;29;20293;-85
2022/10/05 00:10:50;;;;;;;18.77;14.20;;;8.80;99.90;;;;;;4950371;28;20213;-85
2022/10/05 00:13:26;;;;;;;16.58;12.43;;;9.00;99.90;;;;;;4964170;29;20208;-86
2022/10/05 00:16:18;;;;;;;14.90;12.18;;;9.00;99.90;;;;;;4955150;29;20236;-85
2022/10/05 00:18:48;;;;;;;16.85;12.95;;;9.00;99.90;;;;;;4963215;29;20272;-86
2022/10/05 00:21:24;;;;;;;14.65;12.45;;;8.90;99.90;;;;;;4961143;29;20209;-85
2022/10/05 00:23:52;;;;;;;26.65;14.63;;;8.80;99.90;;;;;;4941171;29;20307;-85
2022/10/05 00:26:22;;;;;;;21.33;14.85;;;8.90;99.90;;;;;;4937992;29;20252;-85
2022/10/05 00:28:51;;;;;;;20.10;11.80;;;8.60;99.90;;;;;;4952849;29;20192;-85
2022/10/05 00:31:22;;;;;;;19.27;13.35;;;8.60;99.90;;;;;;4958854;29;20210;-85
2022/10/05 00:33:51;;;;;;;14.02;11.70;;;8.60;99.90;;;;;;4960670;29;20215;-85
2022/10/05 00:36:18;;;;;;;14.50;12.75;;;8.60;99.90;;;;;;4948658;29;20261;-83
2022/10/05 00:38:45;;;;;;;13.48;10.93;;;8.60;99.90;;;;;;4960867;29;20261;-87
2022/10/05 00:41:22;;;;;;;16.27;12.70;;;8.60;99.90;;;;;;4958411;29;20207;-87
2022/10/05 00:44:26;;;;;;;21.67;13.30;;;8.70;99.90;;;;;;4951639;29;20213;-86
2022/10/05 00:47:41;;;;;;;18.95;13.23;;;8.70;99.90;;;;;;4961366;29;20286;-86
2022/10/05 00:51:03;;;;;;;20.58;12.45;;;8.60;99.90;;;;;;4954551;29;20251;-87
2022/10/05 00:53:43;;;;;;;14.55;11.18;;;8.60;99.90;;;;;;4864979;29;20247;-85
2022/10/05 00:56:43;;;;;;;15.80;12.88;;;8.60;99.90;;;;;;4944338;29;20232;-84
2022/10/05 00:59:45;;;;;;;13.30;11.52;;;8.80;99.90;;;;;;4934527;29;20488;-86
2022/10/05 01:02:26;;;;;;;14.25;12.15;;;8.90;99.90;;;;;;4951661;29;20211;-86
2022/10/05 01:05:14;;;;;;;14.75;11.38;;;9.20;99.90;;;;;;4963453;29;20208;-85
2022/10/05 01:08:04;;;;;;;12.82;11.32;;;9.30;99.90;;;;;;4956542;29;20259;-86
2022/10/05 01:10:43;;;;;;;14.15;11.30;;;9.20;99.90;;;;;;4942825;29;20255;-86
2022/10/05 01:13:39;;;;;;;14.07;11.73;;;9.00;99.90;;;;;;4958576;29;20212;-85
2022/10/05 01:16:34;;;;;;;18.88;13.38;;;9.10;99.90;;;;;;4928121;29;20231;-83
2022/10/05 01:19:26;;;;;;;12.90;11.30;;;8.80;99.90;;;;;;4937848;29;20209;-85
2022/10/05 01:22:03;;;;;;;19.23;12.65;;;8.80;99.90;;;;;;4951102;29;20215;-84
2022/10/05 01:24:47;;;;;;;16.05;11.75;;;8.80;99.90;;;;;;4959194;29;20199;-85
2022/10/05 01:27:41;;;;;;;18.20;12.63;;;8.80;99.90;;;;;;4956323;29;20216;-84
2022/10/05 01:30:14;;;;;;;13.80;12.20;;;8.80;99.90;;;;;;4954452;29;20505;-83
2022/10/05 01:32:52;;;;;;;15.70;13.38;;;8.80;99.90;;;;;;4960044;29;20220;-84
2022/10/05 01:36:08;;;;;;;18.50;13.10;;;8.70;99.90;;;;;;4952381;29;20208;-86
2022/10/05 01:38:51;;;;;;;13.68;11.45;;;8.60;99.90;;;;;;4955188;29;20424;-85
2022/10/05 01:41:31;;;;;;;18.65;12.90;;;8.70;99.90;;;;;;4956839;29;20330;-85
2022/10/05 01:44:18;;;;;;;15.52;11.80;;;8.70;99.90;;;;;;4951223;29;20716;-84
2022/10/05 01:47:20;;;;;;;16.02;12.85;;;8.60;99.90;;;;;;4955407;29;20218;-85
2022/10/05 01:49:53;;;;;;;17.30;13.60;;;8.60;99.90;;;;;;4962889;29;20211;-84
2022/10/05 01:52:54;;;;;;;13.82;12.25;;;8.70;99.90;;;;;;4965393;29;20197;-85
2022/10/05 01:55:29;;;;;;;12.98;11.55;;;8.60;99.90;;;;;;4976926;28;20191;-83
2022/10/05 01:58:13;;;;;;;11.65;10.43;;;8.60;99.90;;;;;;4962369;28;20203;-85
2022/10/05 02:00:59;;;;;;;11.52;10.23;;;8.60;99.90;;;;;;4946557;28;20199;-84
2022/10/05 02:03:32;;;;;;;13.20;10.68;;;8.50;99.90;;;;;;4975308;28;20198;-86
2022/10/05 02:06:08;;;;;;;15.07;11.77;;;8.50;99.90;;;;;;4965446;29;20205;-86
2022/10/05 02:08:53;;;;;;;15.68;10.77;;;8.50;99.90;;;;;;4964312;29;20270;-87
2022/10/05 02:11:20;;;;;;;12.40;10.52;;;8.40;99.90;;;;;;4952424;29;20423;-87
2022/10/05 02:13:57;;;;;;;12.85;9.70;;;8.40;99.90;;;;;;4959595;28;20275;-84
2022/10/05 02:16:35;;;;;;;12.88;10.85;;;8.40;99.90;;;;;;4958679;29;20239;-84
2022/10/05 02:19:34;;;;;;;13.55;9.98;;;8.50;99.90;;;;;;4961438;29;20516;-83
2022/10/05 02:22:06;;;;;;;16.45;9.88;;;8.70;99.90;;;;;;4934299;29;20252;-86
2022/10/05 02:24:50;;;;;;;12.52;9.80;;;8.80;99.90;;;;;;4932180;29;20201;-85
2022/10/05 02:27:26;;;;;;;13.80;10.52;;;8.60;99.90;;;;;;4957501;29;20258;-85
2022/10/05 02:30:04;;;;;;;12.50;10.45;;;8.60;99.90;;;;;;4957276;29;20208;-84
2022/10/05 02:32:38;;;;;;;14.10;10.65;;;8.40;99.90;;;;;;4953947;29;20295;-82
2022/10/05 02:35:12;;;;;;;13.68;10.90;;;8.40;99.90;;;;;;4965630;28;20213;-83
2022/10/05 02:37:59;;;;;;;14.93;9.80;;;8.50;99.90;;;;;;4972894;29;20210;-84
2022/10/05 02:40:57;;;;;;;14.07;11.13;;;8.50;99.90;;;;;;4981428;28;20206;-85
2022/10/05 02:43:40;;;;;;;13.10;9.85;;;8.60;99.90;;;;;;4982394;29;20196;-84
2022/10/05 02:46:43;;;;;;;13.60;9.15;;;8.60;99.90;;;;;;4943151;29;20228;-85
2022/10/05 02:49:35;;;;;;;17.65;9.95;;;8.50;99.90;;;;;;4957400;29;20211;-85
2022/10/05 02:52:10;;;;;;;15.13;9.90;;;8.60;99.90;;;;;;4954176;29;20213;-85
2022/10/05 02:55:09;;;;;;;17.85;10.55;;;8.60;99.90;;;;;;4965867;29;20209;-85
2022/10/05 02:57:47;;;;;;;11.60;10.38;;;8.70;99.90;;;;;;4938552;29;20461;-86
2022/10/05 03:00:19;;;;;;;13.75;9.80;;;8.70;99.90;;;;;;4959338;29;20225;-85
2022/10/05 03:02:50;;;;;;;10.52;9.30;;;8.60;99.90;;;;;;4964633;29;20247;-86
2022/10/05 03:05:36;;;;;;;13.75;8.75;;;8.70;99.90;;;;;;4962849;29;20659;-83
2022/10/05 03:08:20;;;;;;;11.85;8.90;;;8.70;99.90;;;;;;4958679;29;20217;-84
2022/10/05 03:10:58;;;;;;;10.52;8.23;;;8.70;99.90;;;;;;4964355;29;20214;-82
2022/10/05 03:13:59;;;;;;;10.30;9.27;;;8.60;99.90;;;;;;4963897;29;20215;-84
2022/10/05 03:16:50;;;;;;;10.40;9.18;;;8.60;99.90;;;;;;4960159;29;20279;-83
2022/10/05 03:19:59;;;;;;;10.60;9.45;;;8.60;99.90;;;;;;4947104;29;20463;-84
2022/10/05 03:22:47;;;;;;;10.30;7.95;;;8.70;99.90;;;;;;4960337;29;20220;-84
2022/10/05 03:25:56;;;;;;;11.32;8.88;;;8.70;99.90;;;;;;4942875;29;20218;-85
2022/10/05 03:28:35;;;;;;;10.25;8.23;;;8.90;99.90;;;;;;4953488;29;20531;-84
2022/10/05 03:31:03;;;;;;;13.95;8.40;;;8.80;99.90;;;;;;4964087;29;20280;-86
2022/10/05 03:33:53;;;;;;;9.80;7.75;;;8.80;99.90;;;;;;4947783;29;20248;-85
2022/10/05 03:37:02;;;;;;;10.57;8.10;;;8.90;99.90;;;;;;4952854;29;20257;-83
2022/10/05 03:39:28;;;;;;;10.10;9.10;;;9.00;99.90;;;;;;4960971;29;20261;-84
2022/10/05 03:42:02;;;;;;;14.18;8.00;;;9.10;99.90;;;;;;4957993;29;20273;-83
2022/10/05 03:44:44;;;;;;;11.02;7.93;;;9.30;99.90;;;;;;4958495;29;20265;-84
2022/10/05 03:47:27;;;;;;;11.20;9.10;;;9.30;99.90;;;;;;4962753;29;20226;-83
2022/10/05 03:50:28;;;;;;;8.60;7.45;;;9.40;99.90;;;;;;4947885;29;20253;-82
2022/10/05 03:53:01;;;;;;;9.95;8.32;;;9.30;99.90;;;;;;4955519;29;20216;-83
2022/10/05 03:55:55;;;;;;;8.82;7.75;;;9.20;99.90;;;;;;4960860;29;20205;-83
2022/10/05 03:58:38;;;;;;;10.07;8.23;;;9.30;99.90;;;;;;4958879;29;20231;-81
2022/10/05 04:01:09;;;;;;;9.93;8.75;;;9.10;99.90;;;;;;4958489;29;20217;-85
2022/10/05 04:03:58;;;;;;;8.85;7.43;;;9.10;99.90;;;;;;4959872;29;20767;-82
2022/10/05 04:06:29;;;;;;;11.15;8.52;;;9.20;99.90;;;;;;4960993;29;20252;-85
2022/10/05 04:09:18;;;;;;;9.02;7.63;;;9.20;99.90;;;;;;4964434;29;20256;-85
2022/10/05 04:11:53;;;;;;;9.13;8.23;;;9.10;99.90;;;;;;4965136;29;20206;-86
2022/10/05 04:14:29;;;;;;;10.93;7.80;;;9.10;99.90;;;;;;4963916;29;20208;-86
2022/10/05 04:17:07;;;;;;;11.27;8.82;;;9.20;99.90;;;;;;4963226;29;20262;-85
2022/10/05 04:20:03;;;;;;;9.20;8.23;;;9.10;99.90;;;;;;4964427;28;20215;-85
2022/10/05 04:22:34;;;;;;;11.43;8.73;;;9.10;99.90;;;;;;4935567;29;20210;-84
2022/10/05 04:25:21;;;;;;;12.07;8.75;;;9.10;99.90;;;;;;4956440;29;20194;-84
2022/10/05 04:28:13;;;;;;;10.05;8.20;;;9.10;99.90;;;;;;4936718;29;20218;-87
2022/10/05 04:30:45;;;;;;;10.52;8.43;;;9.20;99.90;;;;;;4962414;29;20201;-84
2022/10/05 04:33:12;;;;;;;10.25;9.15;;;9.30;99.90;;;;;;4945906;29;20268;-84
2022/10/05 04:35:44;;;;;;;11.95;9.30;;;9.30;99.90;;;;;;4956368;29;20217;-83
2022/10/05 04:38:50;;;;;;;9.63;8.63;;;9.40;99.90;;;;;;4947491;29;20269;-86
2022/10/05 04:41:54;;;;;;;8.93;8.02;;;9.60;99.90;;;;;;4961722;29;20210;-86
2022/10/05 04:44:46;;;;;;;9.77;8.32;;;9.50;99.90;;;;;;4961503;29;20452;-86
2022/10/05 04:47:25;;;;;;;11.40;9.43;;;9.40;99.90;;;;;;4962330;29;20224;-86
2022/10/05 04:50:16;;;;;;;12.57;9.02;;;9.40;99.90;;;;;;4959116;29;20527;-86
2022/10/05 04:53:08;;;;;;;10.07;9.07;;;9.40;99.90;;;;;;4944677;29;20257;-86
2022/10/05 04:56:10;;;;;;;10.88;8.45;;;9.30;99.90;;;;;;4962511;29;20212;-86
2022/10/05 04:59:02;;;;;;;8.90;8.10;;;9.30;99.90;;;;;;4943158;29;20247;-87
2022/10/05 05:02:25;;;;;;;11.05;8.70;;;9.30;99.90;;;;;;4935293;29;20286;-84
2022/10/05 05:05:36;;;;;;;8.68;7.85;;;9.50;99.90;;;;;;4967048;29;20266;-87
2022/10/05 05:08:34;;;;;;;15.10;8.57;;;9.30;99.90;;;;;;4970937;29;20296;-85
2022/10/05 05:11:19;;;;;;;11.32;9.65;;;9.40;99.90;;;;;;4963138;29;20294;-84
2022/10/05 05:14:26;;;;;;;8.85;6.80;;;9.30;99.90;;;;;;4969720;28;20284;-84
2022/10/05 05:17:29;;;;;;;10.70;8.07;;;9.40;99.90;;;;;;4958681;29;20228;-83
2022/10/05 05:20:14;;;;;;;8.80;7.05;;;9.60;99.90;;;;;;4962698;29;20216;-86
2022/10/05 05:23:04;;;;;;;10.68;7.47;;;9.50;99.90;;;;;;4944842;29;20204;-84
2022/10/05 05:25:41;;;;;;;9.60;7.03;;;9.70;99.90;;;;;;4944881;28;20356;-86
2022/10/05 05:28:28;;;;;;;13.30;7.95;;;9.70;99.90;;;;;;4957012;29;20236;-85
2022/10/05 05:31:18;;;;;;;7.75;6.95;;;9.90;99.90;;;;;;4961536;29;20211;-86
2022/10/05 05:34:14;;;;;;;12.05;7.53;;;10.00;99.90;;;;;;4964577;29;20210;-86
2022/10/05 05:37:07;;;;;;;12.23;6.40;;;10.10;99.90;;;;;;4964149;29;20206;-87
2022/10/05 05:39:49;;;;;;;9.20;7.25;;;10.20;99.90;;;;;;4963078;29;20245;-86
2022/10/05 05:42:20;;;;;;;7.95;7.15;;;10.20;99.90;;;;;;4962569;29;20207;-86
2022/10/05 05:44:52;;;;;;;10.60;7.60;;;10.20;99.90;;;;;;4970934;29;20209;-86
2022/10/05 05:47:33;;;;;;;11.85;6.15;;;10.30;99.90;;;;;;4962643;29;20234;-85
2022/10/05 05:50:20;;;;;;;8.13;6.93;;;10.30;99.90;;;;;;4959165;29;20222;-85
2022/10/05 05:53:02;;;;;;;9.15;7.55;;;10.40;99.90;;;;;;4958691;29;20202;-86
2022/10/05 05:55:46;;;;;;;6.68;6.00;;;10.40;99.90;;;;;;4957225;28;20225;-85
2022/10/05 05:58:20;;;;;;;6.00;5.40;;;10.40;99.90;;;;;;4976209;29;20241;-85
2022/10/05 06:01:04;;;;;;;7.20;6.50;;;10.40;99.90;;;;;;4968868;29;20206;-85
2022/10/05 06:03:49;;;;;;;10.18;6.55;;;10.60;99.90;;;;;;4963517;29;20206;-84
2022/10/05 06:06:17;;;;;;;7.20;5.97;;;10.70;99.90;;;;;;4959282;29;20213;-83
2022/10/05 06:08:56;;;;;;;8.20;7.38;;;10.90;99.90;;;;;;4953553;28;20211;-86
2022/10/05 06:11:27;;;;;;;10.07;6.90;;;11.10;99.90;;;;;;4971562;28;20762;-85
2022/10/05 06:14:03;;;;;;;8.88;6.00;;;11.60;99.90;;;;;;4957958;29;20191;-85
2022/10/05 06:16:48;;;;;;;7.13;6.35;;;11.90;99.90;;;;;;4935177;29;20218;-88
2022/10/05 06:19:20;;;;;;;10.57;6.40;;;12.50;99.90;;;;;;4957928;29;20207;-86
2022/10/05 06:21:55;;;;;;;7.10;5.78;;;13.10;99.90;;;;;;4940569;29;20279;-87
2022/10/05 06:24:28;;;;;;;7.82;5.40;;;13.40;99.90;;;;;;4948250;29;20192;-88
2022/10/05 06:27:35;;;;;;;7.60;4.38;;;14.00;99.90;;;;;;4959028;29;20208;-87
2022/10/05 06:30:15;;;;;;;6.57;5.00;;;14.80;99.90;;;;;;4985383;28;20203;-88
2022/10/05 06:33:02;;;;;;;5.03;4.53;;;14.90;99.90;;;;;;4973172;28;20199;-87
2022/10/05 06:36:09;;;;;;;4.85;4.10;;;14.90;99.90;;;;;;4952354;29;20268;-88
2022/10/05 06:38:51;;;;;;;5.75;3.88;;;14.80;99.90;;;;;;4932932;29;20237;-88
2022/10/05 06:41:53;;;;;;;7.07;4.57;;;14.60;99.90;;;;;;4932874;29;20204;-87
2022/10/05 06:44:29;;;;;;;4.45;2.80;;;14.50;99.90;;;;;;4938451;29;20449;-86
2022/10/05 06:47:21;;;;;;;3.88;3.50;;;14.30;99.90;;;;;;4958608;29;20197;-85
2022/10/05 06:50:06;;;;;;;12.43;4.10;;;14.30;99.90;;;;;;4959132;29;20249;-85
2022/10/05 06:53:00;;;;;;;5.43;4.03;;;14.50;99.90;;;;;;4958956;29;20189;-85
2022/10/05 06:55:44;;;;;;;4.32;3.72;;;14.80;99.90;;;;;;4974615;28;20195;-85
2022/10/05 06:58:19;;;;;;;7.70;3.70;;;15.10;99.90;;;;;;4980771;28;20264;-86
2022/10/05 07:00:54;;;;;;;3.95;3.65;;;15.40;99.90;;;;;;4961771;29;20210;-86
2022/10/05 07:04:19;;;;;;;8.37;5.03;;;15.80;99.90;;;;;;4980460;28;20237;-86
2022/10/05 07:06:56;;;;;;;8.63;4.40;;;15.70;99.90;;;;;;4968023;28;20451;-85
2022/10/05 07:09:40;;;;;;;9.53;4.23;;;15.50;99.90;;;;;;4977590;29;20407;-86
2022/10/05 07:12:39;;;;;;;9.63;4.70;;;15.50;99.90;;;;;;4958246;28;20431;-85
2022/10/05 07:15:53;;;;;;;8.83;4.97;;;15.70;99.90;;;;;;4970869;28;20432;-86
2022/10/05 07:18:47;;;;;;;17.07;4.40;;;15.80;99.90;;;;;;4916836;29;20491;-85
2022/10/05 07:21:38;;;;;;;4.90;4.40;;;16.00;99.90;;;;;;4972113;28;20483;-85
2022/10/05 07:24:39;;;;;;;5.83;4.70;;;16.10;99.90;;;;;;4970014;29;20440;-84
2022/10/05 07:27:18;;;;;;;9.27;5.10;;;16.30;99.90;;;;;;4951283;29;20445;-85
2022/10/05 07:30:05;;;;;;;4.47;4.07;;;16.40;99.90;;;;;;4976268;29;20448;-85
2022/10/05 07:32:44;;;;;;;14.67;7.63;;;16.70;99.90;;;;;;4976290;29;20477;-85
2022/10/05 07:38:34;;;;;;;7.83;4.23;;;16.90;99.90;;;;;;4973108;28;20477;-86
2022/10/05 07:41:07;;;;;;;5.60;4.37;;;17.40;99.90;;;;;;4972069;28;20469;-87
2022/10/05 07:43:54;;;;;;;7.93;3.80;;;17.50;99.90;;;;;;4975812;28;20429;-85
2022/10/05 07:46:38;;;;;;;9.80;5.33;;;17.50;99.90;;;;;;4975685;28;20745;-86
2022/10/05 07:49:28;;;;;;;5.97;4.00;;;17.90;99.90;;;;;;4973455;28;20433;-85
2022/10/05 07:52:21;;;;;;;5.10;4.10;;;18.30;99.90;;;;;;4968819;28;20445;-83
2022/10/05 07:55:10;;;;;;;8.50;4.53;;;18.70;99.90;;;;;;4958693;29;20548;-81
2022/10/05 07:58:03;;;;;;;5.93;5.30;;;19.00;99.90;;;;;;4953302;29;20659;-82
2022/10/05 08:00:50;;;;;;;10.33;4.60;;;19.60;99.90;;;;;;4964072;28;20445;-82
2022/10/05 08:03:33;;;;;;;6.00;5.40;;;19.50;99.90;;;;;;4966029;28;20553;-82
2022/10/05 08:06:03;;;;;;;5.27;4.20;;;19.70;99.90;;;;;;4960809;28;20431;-82
2022/10/05 08:08:53;;;;;;;7.53;5.43;;;20.40;99.90;;;;;;4957685;28;20451;-82
2022/10/05 08:11:49;;;;;;;7.63;6.13;;;21.20;99.90;;;;;;4964760;28;20436;-81
2022/10/05 08:14:34;;;;;;;10.00;4.97;;;22.30;99.90;;;;;;4943711;29;20818;-80
2022/10/05 08:17:06;;;;;;;6.60;4.47;;;22.50;99.90;;;;;;4945189;29;20416;-83
2022/10/05 08:19:42;;;;;;;4.07;3.03;;;22.00;99.90;;;;;;4961366;28;20469;-82
2022/10/05 08:22:18;;;;;;;8.07;3.90;;;21.40;99.90;;;;;;4970983;28;20666;-82
2022/10/05 08:24:55;;;;;;;8.70;3.90;;;21.20;99.90;;;;;;4960753;28;20446;-82
2022/10/05 08:27:53;;;;;;;5.23;3.10;;;21.40;99.90;;;;;;4965928;28;20419;-82
2022/10/05 08:30:20;;;;;;;6.80;2.77;;;21.60;99.90;;;;;;4954711;28;20467;-82
2022/10/05 08:33:08;;;;;;;3.40;2.57;;;22.60;99.90;;;;;;4957648;28;20419;-82
2022/10/05 08:35:42;;;;;;;4.47;3.10;;;23.20;99.90;;;;;;4961191;28;20437;-83
2022/10/05 08:38:15;;;;;;;6.07;2.80;;;24.40;99.90;;;;;;4968177;28;20890;-81
2022/10/05 08:41:25;;;;;;;7.30;3.37;;;24.90;99.90;;;;;;4960976;28;20404;-81
2022/10/05 08:44:23;;;;;;;5.93;3.80;;;25.20;99.90;;;;;;4952885;28;20515;-81
2022/10/05 08:47:26;;;;;;;5.83;3.60;;;25.30;99.90;;;;;;4960674;28;20471;-82
2022/10/05 08:50:28;;;;;;;10.03;2.73;;;24.90;99.90;;;;;;4962021;28;20879;-82
2022/10/05 08:53:27;;;;;;;3.53;2.40;;;24.40;99.90;;;;;;4959078;28;20411;-81
2022/10/05 08:56:03;;;;;;;3.30;2.90;;;24.40;99.90;;;;;;4922562;29;20420;-82
2022/10/05 08:58:48;;;;;;;5.63;3.73;;;23.90;99.90;;;;;;4963104;28;20837;-82
2022/10/05 09:01:57;;;;;;;2.90;2.63;;;24.20;99.90;;;;;;4934522;29;20404;-84
2022/10/05 09:05:00;;;;;;;5.03;2.90;;;24.20;99.90;;;;;;4960676;28;20420;-84
2022/10/05 09:07:56;;;;;;;3.73;2.17;;;23.90;99.90;;;;;;4971730;28;20475;-84
2022/10/05 09:10:50;;;;;;;2.53;2.33;;;23.80;99.90;;;;;;4960904;28;20453;-85
2022/10/05 09:13:36;;;;;;;2.73;2.13;;;23.50;99.90;;;;;;4961165;28;20401;-85
2022/10/05 09:16:09;;;;;;;3.53;2.37;;;22.90;99.90;;;;;;4944904;29;20459;-87
2022/10/05 09:18:52;;;;;;;3.70;2.40;;;22.90;99.90;;;;;;4972191;28;20459;-85
2022/10/05 09:21:40;;;;;;;5.37;2.30;;;22.30;99.90;;;;;;4968315;28;20468;-84
2022/10/05 09:24:13;;;;;;;2.17;1.97;;;22.00;99.90;;;;;;4947611;29;20424;-84
2022/10/05 09:26:42;;;;;;;2.80;2.23;;;22.10;99.90;;;;;;4949984;28;20525;-85
2022/10/05 09:29:31;;;;;;;3.77;2.03;;;22.10;99.90;;;;;;4952305;28;20517;-85
2022/10/05 09:32:30;;;;;;;3.40;2.00;;;22.20;99.90;;;;;;4955404;28;20501;-85
2022/10/05 09:35:12;;;;;;;4.33;2.50;;;22.50;99.90;;;;;;4964431;28;20420;-85
2022/10/05 09:38:14;;;;;;;2.50;1.83;;;22.30;99.90;;;;;;4963398;28;20454;-86
2022/10/05 09:41:00;;;;;;;5.10;2.70;;;22.30;99.90;;;;;;4955107;28;20488;-86
2022/10/05 09:43:55;;;;;;;3.90;2.80;;;22.80;99.90;;;;;;4949634;28;20495;-87
2022/10/05 09:46:40;;;;;;;3.43;2.50;;;22.80;99.90;;;;;;4958354;28;20462;-84
2022/10/05 09:49:56;;;;;;;5.70;2.07;;;23.20;99.90;;;;;;4968829;28;20461;-85
2022/10/05 09:52:41;;;;;;;3.00;2.57;;;23.20;99.90;;;;;;4957134;28;20430;-84
2022/10/05 09:55:27;;;;;;;6.27;2.87;;;23.60;99.90;;;;;;4965558;28;20431;-84
2022/10/05 09:58:28;;;;;;;5.43;2.47;;;23.30;99.90;;;;;;4957665;28;20847;-87
2022/10/05 10:01:19;;;;;;;14.07;4.37;;;22.90;99.90;;;;;;4958980;28;20455;-86
2022/10/05 10:04:42;;;;;;;2.50;2.03;;;22.70;99.90;;;;;;4960284;28;20890;-86
2022/10/05 10:07:40;;;;;;;3.77;3.07;;;22.90;99.90;;;;;;4968332;28;20416;-85
2022/10/05 10:10:20;;;;;;;2.27;2.03;;;22.40;99.90;;;;;;4978281;28;20399;-86
2022/10/05 10:13:07;;;;;;;4.37;2.50;;;22.50;99.90;;;;;;4960263;28;20453;-86
2022/10/05 10:16:14;;;;;;;5.33;2.17;;;22.90;99.90;;;;;;4976920;28;20969;-83
2022/10/05 10:19:23;;;;;;;2.40;2.20;;;22.40;99.90;;;;;;4972814;28;20842;-85
2022/10/05 10:22:18;;;;;;;5.90;2.07;;;22.40;99.90;;;;;;4956097;29;20481;-86
2022/10/05 10:25:20;;;;;;;4.27;2.10;;;22.30;99.90;;;;;;4967367;28;20433;-86
2022/10/05 10:28:13;;;;;;;3.83;2.40;;;22.40;99.90;;;;;;4939727;28;20528;-85
2022/10/05 10:30:55;;;;;;;5.93;2.13;;;22.40;99.90;;;;;;4960527;28;20448;-85
2022/10/05 10:34:05;;;;;;;3.03;2.10;;;22.50;99.90;;;;;;4964980;28;20422;-84
2022/10/05 10:37:04;;;;;;;9.83;4.00;;;22.50;99.90;;;;;;4974440;28;20448;-85
2022/10/05 10:39:59;;;;;;;3.00;2.67;;;22.90;99.90;;;;;;4955540;28;20478;-85
2022/10/05 10:42:37;;;;;;;4.90;3.53;;;23.10;99.90;;;;;;4975310;28;20482;-83
2022/10/05 10:45:34;;;;;;;4.20;2.00;;;22.90;99.90;;;;;;4971651;28;20411;-86
2022/10/05 10:48:06;;;;;;;5.50;4.20;;;22.60;99.90;;;;;;4963175;28;20440;-85
2022/10/05 10:50:36;;;;;;;7.50;2.57;;;22.60;99.90;;;;;;4969967;28;20445;-85
2022/10/05 10:53:21;;;;;;;10.93;2.93;;;22.50;99.90;;;;;;4941865;29;20453;-87
2022/10/05 10:56:07;;;;;;;4.53;2.53;;;22.50;99.90;;;;;;4965950;28;20743;-85
2022/10/05 10:58:43;;;;;;;6.07;2.17;;;22.40;99.90;;;;;;4951985;29;20523;-86
2022/10/05 11:01:48;;;;;;;6.13;3.50;;;22.20;99.90;;;;;;4969186;29;20435;-85
2022/10/05 11:04:46;;;;;;;3.17;1.87;;;22.20;99.90;;;;;;4964033;29;20403;-85
2022/10/05 11:07:25;;;;;;;1.83;1.60;;;22.50;99.90;;;;;;4950937;29;20445;-84
2022/10/05 11:10:13;;;;;;;2.90;2.17;;;22.20;99.90;;;;;;4960799;29;20897;-87
2022/10/05 11:12:56;;;;;;;3.10;2.10;;;22.10;99.90;;;;;;4968691;29;20443;-82
2022/10/05 11:16:16;;;;;;;3.33;1.90;;;21.80;99.90;;;;;;4950423;29;20449;-85
2022/10/05 11:19:14;;;;;;;2.67;1.87;;;21.50;99.90;;;;;;4960418;29;20552;-87
2022/10/05 11:21:57;;;;;;;1.90;1.50;;;21.10;99.90;;;;;;4947576;29;20459;-86
2022/10/05 11:24:54;;;;;;;2.00;1.83;;;21.00;99.90;;;;;;4958970;29;20475;-87
2022/10/05 11:27:46;;;;;;;1.90;1.57;;;21.10;99.90;;;;;;4962389;29;20455;-83
2022/10/05 11:30:42;;;;;;;3.40;1.73;;;21.30;99.90;;;;;;4965006;29;20415;-82
2022/10/05 11:33:30;;;;;;;4.10;2.70;;;21.50;99.90;;;;;;4961051;29;20495;-86
2022/10/05 11:36:24;;;;;;;2.00;1.40;;;21.50;99.90;;;;;;4961671;29;20488;-85
2022/10/05 11:39:37;;;;;;;2.30;1.47;;;21.50;99.90;;;;;;4973688;29;20474;-85
2022/10/05 11:42:16;;;;;;;1.97;1.80;;;21.50;99.90;;;;;;4980140;28;20435;-86
2022/10/05 11:45:10;;;;;;;2.60;1.50;;;21.60;99.90;;;;;;4980674;28;20396;-84
2022/10/05 11:47:52;;;;;;;4.90;2.00;;;21.80;99.90;;;;;;4962455;28;20425;-87
2022/10/05 11:50:49;;;;;;;1.40;1.30;;;22.00;99.90;;;;;;4960012;29;20438;-87
2022/10/05 11:53:28;;;;;;;2.70;2.50;;;21.90;99.90;;;;;;4976694;29;20408;-87
2022/10/05 11:56:17;;;;;;;7.20;1.47;;;21.70;99.90;;;;;;4961997;29;20419;-84
2022/10/05 11:59:00;;;;;;;2.60;1.80;;;21.70;99.90;;;;;;4942994;29;20460;-86
2022/10/05 12:01:42;;;;;;;2.83;2.00;;;21.80;99.90;;;;;;4945839;28;20435;-85
2022/10/05 12:04:24;;;;;;;1.63;1.53;;;21.70;99.90;;;;;;4969312;29;20452;-84
2022/10/05 12:07:23;;;;;;;1.97;1.80;;;21.60;99.90;;;;;;4948587;28;20452;-84
2022/10/05 12:10:19;;;;;;;4.47;1.70;;;21.80;99.90;;;;;;4959448;29;20401;-86
2022/10/05 12:13:12;;;;;;;2.30;1.80;;;21.90;99.90;;;;;;4970167;29;20423;-89
2022/10/05 12:15:49;;;;;;;2.03;1.77;;;22.00;99.90;;;;;;4969805;29;20454;-89
2022/10/05 12:18:32;;;;;;;3.00;1.87;;;22.30;99.90;;;;;;4972976;29;20471;-83
2022/10/05 12:21:26;;;;;;;2.30;1.53;;;22.30;99.90;;;;;;4936702;29;20457;-83
2022/10/05 12:23:57;;;;;;;2.20;2.00;;;22.30;99.90;;;;;;4938585;29;20420;-83
2022/10/05 12:26:46;;;;;;;12.40;3.10;;;22.20;99.90;;;;;;4963869;29;20488;-86
2022/10/05 12:29:39;;;;;;;2.23;2.00;;;22.20;99.90;;;;;;4968600;29;20449;-85
2022/10/05 12:32:16;;;;;;;2.07;1.97;;;22.20;99.90;;;;;;4935077;29;20448;-86
2022/10/05 12:35:10;;;;;;;8.43;1.67;;;22.20;99.90;;;;;;4966737;29;20461;-85
2022/10/05 12:37:42;;;;;;;5.30;1.80;;;22.00;99.90;;;;;;4961011;29;20431;-83
2022/10/05 12:40:36;;;;;;;5.30;1.70;;;21.90;99.90;;;;;;4965141;29;20468;-88
2022/10/05 12:43:24;;;;;;;2.60;2.07;;;21.80;99.90;;;;;;4963200;29;20665;-85
2022/10/05 12:46:29;;;;;;;7.30;1.67;;;21.60;99.90;;;;;;4949298;29;20493;-86
2022/10/05 12:49:23;;;;;;;2.20;1.77;;;21.50;99.90;;;;;;4963775;29;20504;-84
2022/10/05 12:52:02;;;;;;;5.70;2.17;;;21.50;99.90;;;;;;4956005;29;20418;-85
2022/10/05 12:54:41;;;;;;;4.00;3.70;;;21.50;99.90;;;;;;4964149;29;20448;-87
2022/10/05 12:57:27;;;;;;;2.50;2.27;;;21.40;99.90;;;;;;4946234;29;20444;-88
2022/10/05 13:00:15;;;;;;;2.63;1.80;;;21.40;99.90;;;;;;4956288;29;20573;-88
2022/10/05 13:03:24;;;;;;;3.23;1.90;;;21.40;99.90;;;;;;4950777;29;20463;-83
2022/10/05 13:06:26;;;;;;;2.53;1.40;;;21.50;99.90;;;;;;5116702;23;20536;-84
2022/10/05 13:09:35;;;;;;;3.60;1.77;;;21.60;99.90;;;;;;4999527;28;20423;-88
2022/10/05 13:12:15;;;;;;;5.63;1.70;;;21.60;99.90;;;;;;4999349;28;20521;-87
2022/10/05 13:14:55;;;;;;;1.87;1.77;;;21.60;99.90;;;;;;4998400;28;20684;-85
2022/10/05 13:17:59;;;;;;;3.20;1.93;;;21.70;99.90;;;;;;5001299;28;20447;-86
2022/10/05 13:20:32;;;;;;;1.57;1.33;;;21.90;99.90;;;;;;4990841;28;20491;-83
2022/10/05 13:23:11;;;;;;;2.70;1.60;;;22.10;99.90;;;;;;5007162;28;20414;-86
2022/10/05 13:25:55;;;;;;;2.63;1.87;;;22.20;99.90;;;;;;5003156;28;20382;-86
2022/10/05 13:28:28;;;;;;;1.80;1.60;;;22.20;99.90;;;;;;4994008;28;20488;-89
2022/10/05 13:31:05;;;;;;;16.73;2.07;;;22.60;99.90;;;;;;5007810;28;20462;-87
2022/10/05 13:33:59;;;;;;;3.43;1.40;;;22.60;99.90;;;;;;5004753;28;20464;-84
2022/10/05 13:36:52;;;;;;;3.27;1.93;;;22.60;99.90;;;;;;4994953;28;20427;-87
2022/10/05 13:39:46;;;;;;;1.70;1.60;;;22.60;99.90;;;;;;5001247;28;20458;-89
2022/10/05 13:42:27;;;;;;;2.33;2.13;;;22.60;99.90;;;;;;5001766;28;20639;-87
2022/10/05 13:45:11;;;;;;;2.67;2.10;;;22.80;99.90;;;;;;5002838;28;20429;-89
2022/10/05 13:55:05;;;;;;;2.43;2.13;;;22.80;99.90;;;;;;4997331;28;20438;-87
2022/10/05 13:58:11;;;;;;;1.73;1.47;;;22.70;99.90;;;;;;4990125;28;20431;-84
2022/10/05 14:01:01;;;;;;;1.33;1.17;;;22.50;99.90;;;;;;4992926;28;20461;-88
2022/10/05 14:03:36;;;;;;;3.27;1.83;;;22.40;99.90;;;;;;5012869;23;20517;-89
2022/10/05 14:06:29;;;;;;;1.60;1.33;;;22.20;99.90;;;;;;5006274;28;20427;-90
2022/10/05 14:08:58;;;;;;;2.60;1.27;;;22.20;99.90;;;;;;4996019;28;20560;-88
2022/10/05 14:11:39;;;;;;;1.80;1.43;;;22.40;99.90;;;;;;5004338;28;20702;-89
2022/10/05 14:14:09;;;;;;;5.37;2.70;;;22.40;99.90;;;;;;5005533;28;20493;-88
2022/10/05 14:16:52;;;;;;;2.50;1.87;;;22.30;99.90;;;;;;4998548;28;20423;-86
2022/10/05 14:19:22;;;;;;;1.60;1.50;;;22.20;99.90;;;;;;5010045;28;20470;-87
2022/10/05 14:22:23;;;;;;;3.23;2.20;;;22.10;99.90;;;;;;4998780;28;20456;-86
2022/10/05 14:25:12;;;;;;;2.00;1.73;;;21.90;99.90;;;;;;5004792;28;20495;-85
2022/10/05 14:27:57;;;;;;;3.33;1.83;;;21.80;99.90;;;;;;5000651;28;20422;-88
2022/10/05 14:30:30;;;;;;;2.00;1.80;;;21.50;99.90;;;;;;4997081;28;20425;-88
2022/10/05 14:33:03;;;;;;;2.30;1.70;;;21.40;99.90;;;;;;5001709;28;20442;-89
2022/10/05 14:35:50;;;;;;;3.97;1.83;;;21.20;99.90;;;;;;5004197;28;20451;-89